Monday, December 18, 2017, 7:56 AM EST
Back to Local

KPNE, N.e. Philadelphia Airport

Location: Philadelphia, PA, United States Lat: 40.083
Local Time: 7:56 AM EST (12:56 GMT) Lon: -75.017
Time Zone: US/Eastern Elev: 121 ft

Show me the last for .
Show Decoded

2017-12-18 06:54 METAR KPNE 181154Z 03005KT 6SM HZ BKN041 OVC050 03/01 A3012 RMK AO2 SLP201
                 T00330006 10039 20033 58007 =
2017-12-18 05:54 METAR KPNE 181054Z 01004KT 6SM HZ OVC037 04/01 A3014 RMK AO2 SLP205 T00390011 =
2017-12-18 05:11 METAR KPNE 181011Z AUTO 02003KT 7SM FEW008 OVC038 04/01 A3014 RMK AO2 T00390011
                 =
2017-12-18 04:54 METAR KPNE 180954Z AUTO 05003KT 7SM BKN040 OVC055 04/01 A3014 RMK AO2 SLP207
                 T00390011 =
2017-12-18 04:35 METAR KPNE 180935Z AUTO 04003KT 7SM SCT008 SCT042 OVC050 04/01 A3014 RMK AO2
                 T00390011 =
2017-12-18 03:54 METAR KPNE 180854Z AUTO 03003KT 7SM OVC009 04/01 A3014 RMK AO2 SLP208 T00390011
                 58007 =
2017-12-18 03:11 METAR KPNE 180811Z AUTO 35006KT 8SM BKN009 OVC060 04/01 A3016 RMK AO2 T00390011
                 =
2017-12-18 03:02 METAR KPNE 180802Z AUTO 36006KT 8SM SCT008 OVC060 04/01 A3016 RMK AO2 T00390011
                 =
2017-12-18 02:54 METAR KPNE 180754Z AUTO 04007KT 8SM BKN060 OVC080 04/01 A3014 RMK AO2 SLP208
                 T00390011 =
2017-12-18 01:54 METAR KPNE 180654Z AUTO 04005KT 8SM BKN035 OVC070 04/01 A3017 RMK AO2 SLP216
                 T00390011 =
2017-12-18 00:54 METAR KPNE 180554Z AUTO 06003KT 8SM FEW060 OVC090 04/01 A3016 RMK AO2 SLP215
                 T00390006 10039 20017 56021 =
2017-12-17 23:54 METAR KPNE 180454Z AUTO 05005KT 8SM SCT070 OVC095 03/M01 A3018 RMK AO2 SLP221
                 T00281006 400721011 =
2017-12-17 22:54 METAR KPNE 180354Z 04003KT 8SM OVC095 03/M01 A3021 RMK AO2 SLP230 T00331006 =
2017-12-17 21:54 METAR KPNE 180254Z 04006KT 8SM OVC100 03/M01 A3023 RMK AO2 SLP236 T00281011
                 56010 =
2017-12-17 20:54 METAR KPNE 180154Z 06005KT 8SM BKN110 02/M01 A3024 RMK AO2 SLP240 T00221011 =
2017-12-17 19:54 METAR KPNE 180054Z 05006KT 8SM CLR 02/M02 A3024 RMK AO2 SLP240 T00221022 =
2017-12-17 18:54 METAR KPNE 172354Z 04005KT 9SM BKN110 04/M02 A3026 RMK AO2 SLP247 T00391017
                 10072 20039 53007 =
2017-12-17 17:54 METAR KPNE 172254Z 06004KT 9SM CLR 04/M02 A3025 RMK AO2 SLP242 T00391017 =
2017-12-17 16:54 METAR KPNE 172154Z 05003KT 9SM CLR 04/M02 A3024 RMK AO2 SLP240 T00441017 =
2017-12-17 15:54 METAR KPNE 172054Z 07003KT 8SM CLR 06/M01 A3024 RMK AO2 SLP240 T00561011 55004 =
2017-12-17 14:54 METAR KPNE 171954Z 04003KT 8SM CLR 06/M02 A3023 RMK AO2 SLP237 T00611017 =
2017-12-17 13:54 METAR KPNE 171854Z 00000KT 9SM CLR 06/M02 A3023 RMK AO2 SLP238 T00611017 =
2017-12-17 12:54 METAR KPNE 171754Z 00000KT 9SM CLR 06/M01 A3025 RMK AO2 SLP244 T00611011 10067
                 21006 58017 =
2017-12-17 11:54 METAR KPNE 171654Z 05003KT 10SM CLR 06/M02 A3028 RMK AO2 SLP253 T00611022 =
2017-12-17 10:54 METAR KPNE 171554Z 10004KT 10SM CLR 05/M02 A3030 RMK AO2 SLP262 T00501022 =
2017-12-17 09:54 METAR KPNE 171454Z 06005KT 10SM CLR 03/M03 A3030 RMK AO2 SLP261 T00281033 51007
                 =
2017-12-17 08:54 METAR KPNE 171354Z 04003KT 9SM CLR 01/M03 A3030 RMK AO2 SLP260 T00111033 =

Support USWX by starting your Amazon purchase here.